createdAt,value
2023-04-08T08:04:50.775Z,6.49
2023-04-08T08:10:16.802Z,6.71
2023-04-08T08:15:42.526Z,6.85
2023-04-08T08:21:08.540Z,7.23
2023-04-08T08:54:31.159Z,8.06
2023-04-08T08:59:57.068Z,8.16
2023-04-08T09:05:24.162Z,8.25
2023-04-08T09:10:50.385Z,8.27
2023-04-08T09:16:17.497Z,8.17
2023-04-08T09:21:37.950Z,8.10
2023-04-08T09:27:07.872Z,8.19
2023-04-08T09:32:33.794Z,8.09
2023-04-08T09:37:59.512Z,8.02
2023-04-08T09:43:29.643Z,8.06
2023-04-08T09:49:00.735Z,8.09
2023-04-08T09:54:35.216Z,8.20
2023-04-08T10:00:05.890Z,8.29
2023-04-08T10:05:35.794Z,8.36
2023-04-08T10:11:03.020Z,8.45
2023-04-08T10:16:42.543Z,8.46
2023-04-08T10:21:57.090Z,8.51
2023-04-08T10:27:12.805Z,8.61
2023-04-08T10:32:43.595Z,8.83
2023-04-08T10:38:03.338Z,9.14
2023-04-08T10:43:14.102Z,9.32
2023-04-08T10:48:41.769Z,9.40
2023-04-08T10:54:00.067Z,9.61
2023-04-08T10:59:20.170Z,9.92
2023-04-08T11:04:31.263Z,10.17
2023-04-08T11:09:47.570Z,10.53
2023-04-08T11:14:55.841Z,10.70
2023-04-08T11:20:06.641Z,10.75
2023-04-08T11:25:20.142Z,10.75
2023-04-08T11:30:46.332Z,10.78
2023-04-08T11:35:56.636Z,10.81
2023-04-08T11:41:22.787Z,10.90
2023-04-08T11:46:33.308Z,10.98
2023-04-08T11:52:16.087Z,11.22
2023-04-08T11:57:51.121Z,11.81
2023-04-08T12:03:17.085Z,12.17
2023-04-08T12:08:30.467Z,12.19
2023-04-08T12:13:38.916Z,12.22
2023-04-08T12:18:47.463Z,12.21
2023-04-08T12:24:13.124Z,12.29
2023-04-08T12:29:29.843Z,12.19
2023-04-08T12:34:38.089Z,12.16
2023-04-08T12:40:02.653Z,12.06
2023-04-08T12:45:31.109Z,11.85
2023-04-08T12:50:57.007Z,11.78
2023-04-08T12:56:22.711Z,12.02
2023-04-08T13:01:49.073Z,12.55
2023-04-08T13:07:07.521Z,12.49
2023-04-08T13:12:33.203Z,12.64
2023-04-08T13:17:58.910Z,12.95
2023-04-08T13:23:25.086Z,13.10
2023-04-08T13:28:31.067Z,13.32
2023-04-08T13:33:58.262Z,13.35
2023-04-08T13:39:24.277Z,13.30
2023-04-08T13:44:50.105Z,13.35
2023-04-08T13:50:15.134Z,13.42
2023-04-08T13:55:41.099Z,13.44
2023-04-08T14:00:57.084Z,13.56
2023-04-08T14:06:22.892Z,13.77
2023-04-08T14:11:42.391Z,13.87
2023-04-08T14:17:08.223Z,13.96
2023-04-08T14:22:33.902Z,14.13
2023-04-08T14:27:56.761Z,14.15
2023-04-08T14:33:13.347Z,14.11
2023-04-08T14:38:27.826Z,13.64
2023-04-08T14:43:42.377Z,13.51
2023-04-08T14:49:08.218Z,13.53
2023-04-08T14:54:27.826Z,13.54
2023-04-08T14:59:53.557Z,13.59
2023-04-08T15:05:19.704Z,13.76
2023-04-08T15:10:45.559Z,13.76
2023-04-08T15:16:03.696Z,13.54
2023-04-08T15:21:12.147Z,13.24
2023-04-08T15:26:28.183Z,12.96
2023-04-08T15:31:54.001Z,12.92
2023-04-08T15:37:19.715Z,13.04
2023-04-08T15:42:45.503Z,13.19
2023-04-08T15:47:52.422Z,13.23
2023-04-08T15:53:08.087Z,13.25
2023-04-08T15:58:13.607Z,13.07
2023-04-08T16:03:39.635Z,12.84
2023-04-08T16:08:48.553Z,12.62
2023-04-08T16:14:04.603Z,12.50
2023-04-08T16:19:23.336Z,12.55
2023-04-08T16:24:38.959Z,12.49
2023-04-08T16:29:57.374Z,12.37
2023-04-08T16:35:23.141Z,12.27
2023-04-08T16:40:48.984Z,12.21
2023-04-08T16:46:14.727Z,12.16
2023-04-08T16:51:33.126Z,12.08
2023-04-08T16:56:58.905Z,11.92
2023-04-08T17:02:24.707Z,11.72
2023-04-08T17:07:51.006Z,11.64
2023-04-08T17:13:15.700Z,11.57
2023-04-08T17:18:41.598Z,11.52
2023-04-08T17:24:07.317Z,11.46
2023-04-08T17:29:32.940Z,11.41
2023-04-08T17:34:58.817Z,11.34
2023-04-08T17:40:24.812Z,11.25
2023-04-08T17:45:50.620Z,10.96
2023-04-08T17:51:22.297Z,10.55
2023-04-08T17:56:49.548Z,10.22
2023-04-08T18:02:15.490Z,9.94
2023-04-08T18:07:41.251Z,9.73
2023-04-08T18:13:11.561Z,9.57
2023-04-08T18:18:37.695Z,9.41
2023-04-08T18:24:03.596Z,9.25
2023-04-08T18:29:29.560Z,9.13
2023-04-08T18:34:55.298Z,9.02
2023-04-08T18:40:21.048Z,8.92
2023-04-08T18:45:46.772Z,8.78
2023-04-08T18:51:12.806Z,8.66
2023-04-08T18:56:39.423Z,8.59
2023-04-08T19:02:05.188Z,8.50
2023-04-08T19:07:30.974Z,8.43
2023-04-08T19:12:56.681Z,8.35
2023-04-08T19:18:22.376Z,8.29
2023-04-08T19:23:48.365Z,8.27
2023-04-08T19:29:14.097Z,8.25
2023-04-08T19:35:01.533Z,8.22
2023-04-08T19:40:26.141Z,8.17
2023-04-08T19:45:51.903Z,8.11
2023-04-08T19:51:46.924Z,8.06
2023-04-08T19:57:12.736Z,8.02
2023-04-08T20:02:38.663Z,7.99
2023-04-08T20:08:04.601Z,7.92
2023-04-08T20:13:30.284Z,7.86
2023-04-08T20:18:35.718Z,7.83
2023-04-08T20:23:44.279Z,7.82
2023-04-08T20:28:50.874Z,7.82
2023-04-08T20:33:56.390Z,7.78
2023-04-08T20:39:02.364Z,7.70
2023-04-08T20:44:10.483Z,7.60
2023-04-08T20:49:16.370Z,7.42
2023-04-08T20:54:22.573Z,7.31
2023-04-08T20:59:28.203Z,7.31
2023-04-08T21:04:33.575Z,7.28
2023-04-08T21:09:39.052Z,7.20
2023-04-08T21:14:45.725Z,7.18
2023-04-08T21:19:52.002Z,7.20
2023-04-08T21:24:57.612Z,7.18
2023-04-08T21:30:03.802Z,7.19
2023-04-08T21:35:10.540Z,7.20
2023-04-08T21:40:16.131Z,7.16
2023-04-08T21:45:21.702Z,7.10
2023-04-08T21:50:26.971Z,7.03
2023-04-08T21:55:32.371Z,6.99
2023-04-08T22:00:37.716Z,6.84
2023-04-08T22:05:42.979Z,6.78
2023-04-08T22:10:48.399Z,6.78
2023-04-08T22:15:53.694Z,6.69
2023-04-08T22:20:59.153Z,6.49
2023-04-08T22:26:04.857Z,6.38
2023-04-08T22:31:12.368Z,6.30
2023-04-08T22:36:17.703Z,6.18
2023-04-08T22:41:24.405Z,5.94
2023-04-08T22:46:29.786Z,5.79
2023-04-08T22:51:35.253Z,5.71
2023-04-08T22:56:40.838Z,5.57
2023-04-08T23:01:46.427Z,5.40
2023-04-08T23:06:51.829Z,5.26
2023-04-08T23:11:58.054Z,5.15
2023-04-08T23:17:05.402Z,5.04
2023-04-08T23:22:11.351Z,4.93
2023-04-08T23:27:16.731Z,4.82
2023-04-08T23:32:22.126Z,4.70
2023-04-08T23:37:27.967Z,4.44
2023-04-08T23:42:33.397Z,4.24
2023-04-08T23:47:38.682Z,4.21
2023-04-08T23:52:44.115Z,4.14
2023-04-08T23:57:50.717Z,3.97
